Historyczne dane pomiarowe

Dodano dane terminowe – wersja testowa.

Dane z okresu 1951-2019

Wersja bazy: 1.34 [2019-03-16, lista zmian], aktualizacja planowana na 2019-04-15

Dane meteo z obszaru Polski uzyskane na podstawie danych udostępnionych przez Instytut Meteorologii i Gospodarki Wodnej – Państwowy Instytut Badawczy.

 

Wybierz Datę:    

       

TemperaturaWilgotnośćWiatrCiśnienieOpadyŚniegCzas trwania zjawisk
 Stacja t tx tn tng RH VA  wxwx mslp ppp RRR   cm mm wxwxwxwxwxwxwx
1963-02-14 -2.9 -0.9 -4.4 -2.8 81.5- 6.7 2.7---- 0.0-- 22---------
1963-02-15 -2.3 0.3 -6.0 -5.5 84.8- 8.0 2.0---- 0.0-- 20---------
1963-02-16 -7.8 -1.9 -9.0 -6.8 80.8- 6.7 3.3---- 0.0-- 20---------
1963-02-17 -3.4 -1.1-11.6-10.7 83.5- 8.0 2.7---- 5.6-- 18---------
1963-02-18 -2.1 -0.1 -3.9 -2.5 86.5- 8.0 3.3---- 0.0-- 19---------
1963-02-19 -2.9 -0.9 -5.5 -5.0 87.8- 6.7 2.0---- 3.8-- 19---------
1963-02-20 -1.0 0.6 -2.4 -2.0 84.0- 8.0 2.0---- 7.2-- 22---------
1963-02-21 -5.0 -0.9 -6.0 -2.0 82.8- 8.0 3.3---- 5.2-- 30---------
1963-02-22 -8.6 -5.0-11.6 -6.0 77.8- 6.7 3.3---- 0.0-- 32---------
1963-02-23-11.2 -6.9-14.6 -7.5 67.8- 6.7 2.0---- 0.0-- 32---------
1963-02-24-19.8-10.8-26.6-23.5 46.8- 0.7 1.3---- 0.0-- 32---------
1963-02-25-12.2 -6.2-24.3-20.4 70.3- 4.3 4.3---- 3.0-- 32---------
1963-02-26-14.3 -5.3-20.3 -6.8 66.8- 3.0 4.3---- 0.0-- 33---------
1963-02-27-19.3-12.6-25.3-20.4 60.0- 0.7 2.0---- 0.0-- 32---------
1963-02-28-20.6-11.1-27.6-21.9 46.0- 0.0 0.7---- 0.0-- 32---------
1963-03-01-12.0 -7.2-24.6-28.1 71.5- 5.3 1.3---- 0.0-- 30---------
1963-03-02 -6.8 -1.9-14.6-16.4 72.5- 5.3 4.0---- 0.0-- 28---------
1963-03-03 -5.2 -2.3-10.4-11.4 70.5- 8.0 6.0---- 2.0-- 26---------
1963-03-04 -2.1 -0.5 -4.8 -5.0 83.3- 8.0 2.0---- 2.0-- 28---------
1963-03-05 -1.7 0.3 -5.0 -5.5 76.8- 8.0 2.0---- 0.0-- 28---------
1963-03-06 -1.1 3.4 -9.2-11.1 79.8- 4.3 3.3---- 0.0-- 26---------
1963-03-07 3.2 7.5 -0.1 -1.5 64.5- 6.3 9.0---- 0.0-- 22---------
1963-03-08 4.8 8.3 1.9 -0.5 74.8- 6.7 6.7---- 0.0-- 18---------
1963-03-09 -0.8 4.4 -3.4 0.0 90.0- 8.0 2.0---- 6.3-- 12---------
1963-03-10 -4.3 2.7 -5.5 -6.0 83.8- 8.0 4.0---- 1.6-- 12---------
1963-03-11 0.7 2.7 -4.8 -4.8 90.8- 8.0 2.0---- 0.0-- 12---------
1963-03-12 1.4 7.3 -2.1 -4.5 92.0- 8.0 1.0---- 12.0-- 11---------
1963-03-13 2.3 4.7 0.6 0.0 90.5- 8.0 4.0---- 1.0-- 11---------
1963-03-14 -5.9 2.4 -8.5 -3.8 79.3- 4.0 9.3---- 0.5-- 12---------
1963-03-15 -9.8 -5.9-13.1-12.4 71.5- 0.0 5.0---- 0.0-- 12---------
188.9 ms

 

Źródłem pochodzenia danych jest Instytut Meteorologii i Gospodarki Wodnej – Państwowy Instytut Badawczy. Dane Instytutu Meteorologii i Gospodarki Wodnej – Państwowego Instytutu Badawczego zostały przetworzone.

Dane źródłowe można odnaleźć na stronie https://dane.imgw.pl